Time;durP1;ratioP1;P1;durP2;ratioP2;P2;SDS_P1;SDS_P2;PMS_P1;PMS_P2;Temp;Humidity;BMP_temperature;BMP_pressure;BME280_temperature;BME280_humidity;BME280_pressure;Samples;Min_cycle;Max_cycle;Signal;HPM_P1;HPM_P2
2024/04/03 00:00:54;;;;;;;5.00;3.93;;;9.80;99.90;;;;;;5120881;28;20509;-66
2024/04/03 00:03:21;;;;;;;7.43;5.17;;;9.80;99.90;;;;;;5125380;28;20479;-65
2024/04/03 00:05:48;;;;;;;9.17;5.37;;;9.80;99.90;;;;;;5127208;28;20455;-65
2024/04/03 00:08:16;;;;;;;8.30;5.30;;;9.80;99.90;;;;;;5126289;28;20451;-65
2024/04/03 00:10:42;;;;;;;11.30;6.53;;;9.70;1.00;;;;;;5125971;28;20488;-65
2024/04/03 00:13:10;;;;;;;10.30;5.43;;;9.70;1.00;;;;;;5125477;28;20469;-66
2024/04/03 00:15:38;;;;;;;7.40;5.67;;;9.70;1.00;;;;;;5125832;28;20464;-66
2024/04/03 00:18:05;;;;;;;7.43;4.63;;;9.60;1.00;;;;;;5125245;28;20537;-65
2024/04/03 00:20:32;;;;;;;11.10;5.20;;;9.60;1.00;;;;;;5127736;28;20455;-65
2024/04/03 00:22:59;;;;;;;10.17;5.00;;;9.60;1.00;;;;;;5119658;28;20462;-66
2024/04/03 00:25:27;;;;;;;7.73;5.23;;;9.60;34.60;;;;;;5118140;28;20509;-65
2024/04/03 00:27:54;;;;;;;7.77;4.30;;;9.60;1.00;;;;;;5117802;28;20498;-65
2024/04/03 00:30:20;;;;;;;7.00;4.63;;;9.60;82.50;;;;;;5117566;28;20451;-65
2024/04/03 00:32:49;;;;;;;5.37;3.80;;;9.60;54.90;;;;;;5117738;28;20459;-64
2024/04/03 00:35:15;;;;;;;4.70;3.70;;;9.60;99.90;;;;;;5117695;28;20495;-64
2024/04/03 00:37:42;;;;;;;6.67;4.50;;;9.60;99.90;;;;;;5118403;28;20519;-65
2024/04/03 00:40:10;;;;;;;6.10;4.20;;;9.60;99.90;;;;;;5117948;28;20459;-65
2024/04/03 00:42:39;;;;;;;7.20;4.47;;;9.70;99.90;;;;;;5117508;28;20941;-65
2024/04/03 00:45:05;;;;;;;5.60;3.70;;;9.60;99.90;;;;;;5117690;28;20852;-65
2024/04/03 00:47:33;;;;;;;7.00;3.20;;;9.60;99.90;;;;;;5117650;28;20459;-65
2024/04/03 00:50:00;;;;;;;4.97;3.13;;;9.70;99.90;;;;;;5117409;28;20460;-64
2024/04/03 00:52:28;;;;;;;4.87;2.70;;;9.70;99.90;;;;;;5117418;28;20455;-64
2024/04/03 00:54:54;;;;;;;5.67;3.20;;;9.70;99.90;;;;;;5117603;28;20780;-65
2024/04/03 00:57:21;;;;;;;7.97;3.40;;;9.60;99.90;;;;;;5120781;28;20504;-64
2024/04/03 00:59:49;;;;;;;5.73;3.80;;;9.70;99.90;;;;;;5120645;28;20459;-65
2024/04/03 01:02:16;;;;;;;6.17;3.17;;;9.70;99.90;;;;;;5120314;28;20462;-65
2024/04/03 01:04:43;;;;;;;6.53;3.90;;;9.60;99.90;;;;;;5120983;28;20455;-65
2024/04/03 01:07:11;;;;;;;6.00;3.47;;;9.60;99.90;;;;;;5121031;28;20468;-65
2024/04/03 01:09:38;;;;;;;6.13;4.00;;;9.60;99.90;;;;;;5121019;28;20466;-63
2024/04/03 01:12:06;;;;;;;4.87;3.40;;;9.70;99.90;;;;;;5120696;28;20833;-62
2024/04/03 01:14:32;;;;;;;6.70;4.30;;;9.60;99.90;;;;;;5120764;28;20864;-62
2024/04/03 01:17:01;;;;;;;6.40;4.23;;;9.70;99.90;;;;;;5120621;28;20519;-63
2024/04/03 01:19:27;;;;;;;8.33;4.60;;;9.70;99.90;;;;;;5120742;28;20455;-62
2024/04/03 01:21:55;;;;;;;6.83;4.27;;;9.60;99.90;;;;;;5120742;28;20465;-62
2024/04/03 01:24:23;;;;;;;5.77;4.50;;;9.70;99.90;;;;;;5120457;28;20874;-62
2024/04/03 01:26:50;;;;;;;7.40;4.83;;;9.60;99.90;;;;;;5120565;28;20467;-62
2024/04/03 01:29:16;;;;;;;6.40;4.00;;;9.60;99.90;;;;;;5120576;28;20434;-63
2024/04/03 01:31:44;;;;;;;5.80;4.40;;;9.60;99.90;;;;;;5120628;28;20867;-63
2024/04/03 01:34:10;;;;;;;6.47;5.10;;;9.50;1.00;;;;;;5120528;28;20550;-63
2024/04/03 01:36:37;;;;;;;7.10;4.80;;;9.50;1.00;;;;;;5120607;28;20455;-62
2024/04/03 01:39:03;;;;;;;6.60;4.40;;;9.50;1.00;;;;;;5120449;28;20836;-62
2024/04/03 01:41:32;;;;;;;13.30;6.20;;;9.60;1.00;;;;;;5120610;28;20463;-62
2024/04/03 01:43:58;;;;;;;8.10;5.00;;;9.60;1.00;;;;;;5120026;28;20586;-62
2024/04/03 01:46:26;;;;;;;8.27;5.20;;;9.50;1.00;;;;;;5120388;28;20458;-64
2024/04/03 01:48:52;;;;;;;4.97;4.33;;;9.50;94.10;;;;;;5120297;28;20487;-61
2024/04/03 01:51:19;;;;;;;6.70;4.90;;;9.60;11.60;;;;;;5120592;28;20456;-62
2024/04/03 01:53:46;;;;;;;5.87;4.77;;;9.50;17.90;;;;;;5119834;28;20810;-63
2024/04/03 01:56:13;;;;;;;7.00;4.80;;;9.50;58.70;;;;;;5119905;28;20487;-62
2024/04/03 01:58:42;;;;;;;7.10;4.73;;;9.60;99.90;;;;;;5119785;28;20459;-62
2024/04/03 02:01:09;;;;;;;5.83;5.13;;;9.60;99.90;;;;;;5120078;28;20901;-62
2024/04/03 02:03:37;;;;;;;5.30;4.63;;;9.50;99.90;;;;;;5120151;28;20491;-62
2024/04/03 02:06:05;;;;;;;6.63;4.63;;;9.50;99.90;;;;;;5119689;28;20949;-63
2024/04/03 02:08:31;;;;;;;7.50;5.20;;;9.60;1.00;;;;;;5118586;28;20494;-63
2024/04/03 02:10:58;;;;;;;6.30;4.47;;;9.60;1.00;;;;;;5120166;28;20452;-62
2024/04/03 02:13:25;;;;;;;8.77;6.37;;;9.60;1.00;;;;;;5119966;28;20508;-62
2024/04/03 02:15:56;;;;;;;5.23;4.50;;;9.60;1.00;;;;;;5119419;28;20931;-62
2024/04/03 02:18:23;;;;;;;7.93;5.03;;;9.60;1.00;;;;;;5119633;28;20457;-64
2024/04/03 02:20:50;;;;;;;10.50;5.00;;;9.60;1.00;;;;;;5119779;28;20505;-65
2024/04/03 02:23:16;;;;;;;5.90;5.20;;;9.50;1.00;;;;;;5119507;28;20492;-65
2024/04/03 02:25:43;;;;;;;5.37;4.07;;;9.60;1.00;;;;;;5119868;28;20451;-65
2024/04/03 02:28:09;;;;;;;7.30;5.57;;;9.60;1.00;;;;;;5119397;28;20943;-65
2024/04/03 02:30:37;;;;;;;7.93;5.63;;;9.50;1.00;;;;;;5119566;28;20937;-65
2024/04/03 02:33:06;;;;;;;8.63;5.10;;;9.50;1.00;;;;;;5119241;28;20458;-66
2024/04/03 02:35:33;;;;;;;7.37;5.70;;;9.50;1.00;;;;;;5119642;28;20463;-65
2024/04/03 02:37:59;;;;;;;6.33;4.50;;;9.40;1.00;;;;;;5119058;28;20455;-65
2024/04/03 02:40:26;;;;;;;7.57;5.60;;;9.40;1.00;;;;;;5119355;28;20495;-65
2024/04/03 02:42:53;;;;;;;6.90;6.20;;;9.30;94.60;;;;;;5119066;28;20783;-65
2024/04/03 02:45:20;;;;;;;6.90;5.37;;;9.40;34.80;;;;;;5119532;28;20584;-66
2024/04/03 02:47:46;;;;;;;9.27;5.90;;;9.30;36.10;;;;;;5118605;28;20462;-66
2024/04/03 02:50:15;;;;;;;12.43;6.33;;;9.30;99.90;;;;;;5118713;28;20785;-66
2024/04/03 02:52:41;;;;;;;8.97;6.00;;;9.40;99.90;;;;;;5118857;28;20451;-65
2024/04/03 02:55:08;;;;;;;10.63;6.80;;;9.40;99.90;;;;;;5120031;28;20737;-65
2024/04/03 02:57:34;;;;;;;9.57;7.30;;;9.30;99.90;;;;;;5120273;28;20479;-65
2024/04/03 03:00:03;;;;;;;11.23;8.00;;;9.40;99.90;;;;;;5119249;28;20462;-66
2024/04/03 03:02:29;;;;;;;12.43;7.07;;;9.40;99.90;;;;;;5119116;28;20455;-66
2024/04/03 03:04:56;;;;;;;8.70;7.80;;;9.40;99.90;;;;;;5118834;28;20487;-65
2024/04/03 03:07:24;;;;;;;14.17;7.97;;;9.40;99.90;;;;;;5118283;28;20550;-66
2024/04/03 03:09:51;;;;;;;10.60;7.50;;;9.40;1.00;;;;;;5118685;28;20517;-66
2024/04/03 03:12:17;;;;;;;11.73;7.03;;;9.40;1.00;;;;;;5119094;28;20459;-65
2024/04/03 03:14:45;;;;;;;11.10;6.47;;;9.30;1.00;;;;;;5118694;28;20953;-65
2024/04/03 03:17:11;;;;;;;11.67;6.70;;;9.30;1.00;;;;;;5118536;28;20510;-64
2024/04/03 03:19:38;;;;;;;8.17;6.10;;;9.40;30.70;;;;;;5118227;28;20455;-64
2024/04/03 03:22:05;;;;;;;9.10;6.33;;;9.40;99.90;;;;;;5118608;28;20774;-63
2024/04/03 03:24:34;;;;;;;8.23;5.80;;;9.40;99.90;;;;;;5118505;28;20753;-64
2024/04/03 03:27:00;;;;;;;9.80;6.57;;;9.30;99.90;;;;;;5118029;28;20558;-64
2024/04/03 03:29:27;;;;;;;8.17;6.07;;;9.30;99.90;;;;;;5118227;28;20430;-65
2024/04/03 03:31:54;;;;;;;9.63;5.83;;;9.40;1.00;;;;;;5118319;28;20487;-64
2024/04/03 03:34:21;;;;;;;13.73;6.77;;;9.30;1.00;;;;;;5118747;28;20873;-64
2024/04/03 03:36:48;;;;;;;9.60;6.17;;;9.30;1.00;;;;;;5118150;28;20462;-65
2024/04/03 03:39:15;;;;;;;9.27;6.60;;;9.30;1.00;;;;;;5118614;28;20460;-65
2024/04/03 03:41:43;;;;;;;9.40;6.77;;;9.30;1.00;;;;;;5118654;28;20541;-66
2024/04/03 03:44:11;;;;;;;11.37;6.57;;;9.20;99.90;;;;;;5118200;28;20523;-65
2024/04/03 03:46:37;;;;;;;10.70;6.17;;;9.20;99.90;;;;;;5118313;28;20506;-65
2024/04/03 03:54:33;;;;;;;18.27;11.37;;;9.20;1.00;;;;;;5118029;28;20841;-65
2024/04/03 03:57:02;;;;;;;23.77;17.03;;;9.20;1.00;;;;;;5118469;28;20791;-65
2024/04/03 03:59:29;;;;;;;19.13;13.40;;;9.20;1.00;;;;;;5118345;28;20516;-64
2024/04/03 04:01:56;;;;;;;14.83;10.07;;;9.30;1.00;;;;;;5117987;28;20460;-65
2024/04/03 04:04:23;;;;;;;15.23;10.40;;;9.30;1.00;;;;;;5118109;28;20488;-65
2024/04/03 04:06:50;;;;;;;14.03;9.27;;;9.30;1.00;;;;;;5118310;28;20455;-64
2024/04/03 04:09:17;;;;;;;28.10;19.77;;;9.30;1.00;;;;;;5118494;28;20546;-65
2024/04/03 04:11:44;;;;;;;12.17;8.73;;;9.20;1.00;;;;;;5118624;28;20432;-65
2024/04/03 04:14:12;;;;;;;16.57;9.33;;;9.20;1.00;;;;;;5118321;28;20547;-65
2024/04/03 04:16:39;;;;;;;9.20;7.30;;;9.20;1.00;;;;;;5117641;28;20516;-64
2024/04/03 04:19:05;;;;;;;20.90;14.50;;;9.20;1.00;;;;;;5117779;28;20516;-65
2024/04/03 04:21:32;;;;;;;19.00;10.30;;;9.30;1.00;;;;;;5118238;28;20748;-65
2024/04/03 04:23:59;;;;;;;11.57;8.33;;;9.30;1.00;;;;;;5117931;28;20542;-65
2024/04/03 04:26:26;;;;;;;17.93;8.90;;;9.20;1.00;;;;;;5117887;28;20466;-65
2024/04/03 04:28:52;;;;;;;7.93;6.40;;;9.20;1.00;;;;;;5118103;28;20455;-65
2024/04/03 04:31:21;;;;;;;17.00;10.77;;;9.10;1.00;;;;;;5120186;28;20481;-65
2024/04/03 04:33:47;;;;;;;17.00;10.10;;;9.10;1.00;;;;;;5122660;28;20447;-65
2024/04/03 04:36:14;;;;;;;16.60;8.97;;;9.10;1.00;;;;;;5123236;28;20455;-65
2024/04/03 04:38:40;;;;;;;17.73;12.37;;;9.10;1.00;;;;;;5122861;28;20487;-65
2024/04/03 04:41:07;;;;;;;15.90;10.97;;;9.10;1.00;;;;;;5122872;28;20455;-65
2024/04/03 04:43:34;;;;;;;18.50;9.87;;;9.20;1.00;;;;;;5123004;28;20483;-65
2024/04/03 04:46:02;;;;;;;10.30;6.87;;;9.20;1.00;;;;;;5124102;28;20485;-65
2024/04/03 04:48:31;;;;;;;8.47;5.27;;;9.20;1.00;;;;;;5123060;28;20983;-65
2024/04/03 04:51:00;;;;;;;10.00;7.10;;;9.20;1.00;;;;;;5121968;28;20465;-65
2024/04/03 04:53:27;;;;;;;21.63;9.90;;;9.10;1.00;;;;;;5121193;28;20542;-65
2024/04/03 04:55:56;;;;;;;16.93;8.53;;;9.10;1.00;;;;;;5121019;28;20459;-64
2024/04/03 04:58:22;;;;;;;10.47;6.10;;;9.10;1.00;;;;;;5121334;28;20461;-65
2024/04/03 05:00:51;;;;;;;10.80;4.83;;;9.10;1.00;;;;;;5121334;28;20455;-65
2024/04/03 05:03:17;;;;;;;9.40;5.10;;;9.10;1.00;;;;;;5121863;28;20883;-66
2024/04/03 05:05:46;;;;;;;11.70;5.00;;;9.00;1.00;;;;;;5122349;28;20546;-65
2024/04/03 05:08:12;;;;;;;7.43;5.00;;;9.00;1.00;;;;;;5124384;28;20440;-66
2024/04/03 05:10:39;;;;;;;7.10;4.30;;;9.00;1.00;;;;;;5123086;28;20455;-66
2024/04/03 05:13:06;;;;;;;7.07;4.50;;;9.00;1.00;;;;;;5122828;28;20495;-66
2024/04/03 05:15:33;;;;;;;6.70;4.63;;;9.00;1.00;;;;;;5121923;28;20463;-66
2024/04/03 05:18:00;;;;;;;11.33;4.30;;;9.00;1.00;;;;;;5121590;28;20527;-66
2024/04/03 05:20:27;;;;;;;9.40;4.60;;;9.10;1.00;;;;;;5124530;28;20456;-66
2024/04/03 05:22:56;;;;;;;6.90;4.47;;;9.10;1.00;;;;;;5121886;28;20455;-66
2024/04/03 05:25:23;;;;;;;6.60;3.90;;;9.10;1.00;;;;;;5122314;28;20487;-66
2024/04/03 05:27:49;;;;;;;9.40;4.60;;;9.10;1.00;;;;;;5122208;28;20506;-66
2024/04/03 05:30:16;;;;;;;10.87;4.73;;;9.10;1.00;;;;;;5121683;28;20459;-66
2024/04/03 05:32:43;;;;;;;6.00;4.00;;;9.20;1.00;;;;;;5120437;28;20434;-64
2024/04/03 05:35:11;;;;;;;8.60;4.03;;;9.30;1.00;;;;;;5120659;28;20462;-65
2024/04/03 05:37:37;;;;;;;8.13;4.17;;;9.30;99.90;;;;;;5120340;28;20460;-66
2024/04/03 05:40:08;;;;;;;8.30;4.33;;;9.20;99.90;;;;;;5120310;28;20455;-65
2024/04/03 05:42:34;;;;;;;6.30;4.07;;;9.20;99.90;;;;;;5119877;28;20546;-65
2024/04/03 05:45:02;;;;;;;8.90;4.13;;;9.30;99.90;;;;;;5120380;28;20487;-65
2024/04/03 05:47:28;;;;;;;6.77;4.17;;;9.40;99.90;;;;;;5119632;28;20451;-65
2024/04/03 05:49:56;;;;;;;7.23;3.57;;;9.30;99.90;;;;;;5120163;28;20762;-65
2024/04/03 05:52:23;;;;;;;6.90;4.10;;;9.30;99.90;;;;;;5120039;28;20512;-64
2024/04/03 05:54:50;;;;;;;6.10;3.67;;;9.40;99.90;;;;;;5119948;28;20807;-65
2024/04/03 05:57:18;;;;;;;5.77;3.50;;;9.30;99.90;;;;;;5119575;28;20508;-63
2024/04/03 05:59:45;;;;;;;9.00;3.73;;;9.40;99.90;;;;;;5118516;28;20817;-65
2024/04/03 06:02:12;;;;;;;10.27;4.20;;;9.30;27.10;;;;;;5118938;28;20549;-64
2024/04/03 06:04:39;;;;;;;7.00;3.93;;;9.30;1.00;;;;;;5119051;28;20484;-65
2024/04/03 06:07:06;;;;;;;6.23;4.63;;;9.40;1.00;;;;;;5117995;28;20949;-65
2024/04/03 06:09:33;;;;;;;6.90;4.00;;;9.40;99.90;;;;;;5116893;28;20448;-64
2024/04/03 06:11:59;;;;;;;6.00;3.17;;;9.40;99.90;;;;;;5117042;28;20516;-65
2024/04/03 06:14:28;;;;;;;7.93;4.10;;;9.40;99.90;;;;;;5117674;28;20822;-65
2024/04/03 06:16:55;;;;;;;5.37;3.60;;;9.40;1.00;;;;;;5117080;28;20483;-64
2024/04/03 06:19:23;;;;;;;11.87;4.07;;;9.40;1.00;;;;;;5117653;28;20907;-64
2024/04/03 06:21:49;;;;;;;5.10;3.07;;;9.50;1.00;;;;;;5117990;28;20846;-63
2024/04/03 06:24:16;;;;;;;6.80;4.10;;;9.50;1.00;;;;;;5119681;28;20487;-63
2024/04/03 06:26:42;;;;;;;8.23;3.70;;;9.50;99.90;;;;;;5119495;28;20455;-63
2024/04/03 06:29:10;;;;;;;18.60;11.00;;;9.60;99.90;;;;;;5118516;28;20466;-64
2024/04/03 06:31:37;;;;;;;18.43;10.47;;;9.50;99.90;;;;;;5118030;28;20500;-63
2024/04/03 06:34:05;;;;;;;26.10;12.77;;;9.50;99.90;;;;;;5117315;28;20481;-63
2024/04/03 06:36:31;;;;;;;19.93;13.60;;;9.50;99.90;;;;;;5117547;28;20872;-63
2024/04/03 06:38:58;;;;;;;28.73;18.23;;;9.60;22.30;;;;;;5117750;28;20452;-65
2024/04/03 06:41:24;;;;;;;28.37;14.17;;;9.60;1.00;;;;;;5116674;28;20459;-63
2024/04/03 06:43:53;;;;;;;14.70;9.90;;;9.60;1.00;;;;;;5117363;28;20833;-62
2024/04/03 06:46:19;;;;;;;12.17;6.47;;;9.60;1.00;;;;;;5117235;28;20459;-62
2024/04/03 06:48:48;;;;;;;11.40;6.70;;;9.60;1.00;;;;;;5118791;28;20562;-61
2024/04/03 06:51:14;;;;;;;10.20;6.60;;;9.70;1.00;;;;;;5117975;28;20781;-63
2024/04/03 06:53:42;;;;;;;13.63;9.67;;;9.70;1.00;;;;;;5118072;28;20451;-64
2024/04/03 06:56:08;;;;;;;28.93;13.60;;;9.80;1.00;;;;;;5117098;28;20435;-64
2024/04/03 06:58:40;;;;;;;21.27;11.17;;;9.80;1.00;;;;;;5118019;28;20478;-62
2024/04/03 07:01:06;;;;;;;21.93;11.00;;;9.80;1.00;;;;;;5117899;28;20771;-62
2024/04/03 07:03:34;;;;;;;14.57;7.73;;;9.70;99.90;;;;;;5118380;28;20915;-61
2024/04/03 07:06:01;;;;;;;17.77;8.20;;;9.70;99.90;;;;;;5117761;28;20455;-62
2024/04/03 07:08:29;;;;;;;12.17;5.93;;;9.70;99.90;;;;;;5118169;28;20863;-61
2024/04/03 07:10:55;;;;;;;14.93;9.83;;;9.70;99.90;;;;;;5118762;28;20479;-62
2024/04/03 07:13:22;;;;;;;13.10;8.33;;;9.80;99.90;;;;;;5117434;28;20740;-62
2024/04/03 07:15:49;;;;;;;13.67;6.80;;;9.80;99.90;;;;;;5116485;28;20494;-62
2024/04/03 07:18:17;;;;;;;36.50;14.97;;;9.90;99.90;;;;;;5116643;28;20552;-63
2024/04/03 07:20:52;;;;;;;11.23;6.63;;;9.90;99.90;;;;;;5116363;28;20490;-62
2024/04/03 07:23:25;;;;;;;11.60;5.50;;;9.90;99.90;;;;;;5116970;28;20523;-61
2024/04/03 07:25:52;;;;;;;8.13;4.63;;;10.00;20.30;;;;;;5116370;28;20589;-62
2024/04/03 07:28:19;;;;;;;11.30;5.40;;;10.10;1.00;;;;;;5117110;28;20540;-62
2024/04/03 07:30:46;;;;;;;6.93;4.70;;;10.20;1.00;;;;;;5118141;28;20463;-62
2024/04/03 07:33:13;;;;;;;8.60;5.40;;;10.20;1.00;;;;;;5118540;28;20461;-62
2024/04/03 07:35:40;;;;;;;12.00;8.40;;;10.20;99.90;;;;;;5118232;28;20478;-62
2024/04/03 07:38:08;;;;;;;6.23;4.63;;;10.30;99.90;;;;;;5118125;28;20438;-63
2024/04/03 07:40:36;;;;;;;11.27;4.80;;;10.40;99.90;;;;;;5117588;28;20459;-62
2024/04/03 07:43:04;;;;;;;10.73;5.97;;;10.50;99.90;;;;;;5117781;28;20756;-62
2024/04/03 07:45:30;;;;;;;8.30;5.30;;;10.50;99.90;;;;;;5118113;28;20494;-62
2024/04/03 07:47:59;;;;;;;8.47;4.50;;;10.60;99.90;;;;;;5117326;28;20491;-62
2024/04/03 07:50:26;;;;;;;6.93;4.93;;;10.60;1.00;;;;;;5117445;28;20906;-62
2024/04/03 07:52:54;;;;;;;10.67;5.30;;;10.50;1.00;;;;;;5117915;28;20880;-62
2024/04/03 07:55:20;;;;;;;7.67;5.00;;;10.50;1.00;;;;;;5118084;28;20430;-63
2024/04/03 07:57:49;;;;;;;7.57;4.30;;;10.60;1.00;;;;;;5117774;28;20466;-61
2024/04/03 08:00:15;;;;;;;8.97;4.23;;;10.70;23.90;;;;;;5117670;28;20455;-63
2024/04/03 08:02:44;;;;;;;6.70;4.03;;;10.80;1.00;;;;;;5117704;28;20463;-63
2024/04/03 08:05:11;;;;;;;5.33;3.03;;;10.80;1.00;;;;;;5117955;28;20496;-63
2024/04/03 08:07:40;;;;;;;10.10;4.77;;;10.70;1.00;;;;;;5117604;28;20456;-64
2024/04/03 08:10:08;;;;;;;5.90;3.50;;;10.80;1.00;;;;;;5116099;28;20520;-63
2024/04/03 08:12:37;;;;;;;5.43;3.77;;;10.80;1.00;;;;;;5116262;28;20530;-62
2024/04/03 08:15:05;;;;;;;6.17;3.60;;;10.70;1.00;;;;;;5116070;28;20452;-62
2024/04/03 08:17:33;;;;;;;6.73;3.70;;;10.60;1.00;;;;;;5116344;28;20778;-61
2024/04/03 08:20:00;;;;;;;5.83;3.07;;;10.50;1.00;;;;;;5116642;28;20455;-62
2024/04/03 08:22:27;;;;;;;7.30;3.00;;;10.60;1.00;;;;;;5117281;28;20745;-60
2024/04/03 08:24:53;;;;;;;3.90;2.50;;;10.60;1.00;;;;;;5116527;28;20491;-61
2024/04/03 08:27:21;;;;;;;5.07;3.00;;;10.60;1.00;;;;;;5116760;28;20554;-62
2024/04/03 08:29:49;;;;;;;8.70;2.60;;;10.70;1.00;;;;;;5116723;28;20512;-62
2024/04/03 08:32:18;;;;;;;5.00;2.80;;;10.80;1.00;;;;;;5115803;28;20456;-62
2024/04/03 08:34:45;;;;;;;7.40;2.80;;;10.90;1.00;;;;;;5115210;28;20458;-62
2024/04/03 08:37:13;;;;;;;4.60;2.50;;;10.80;1.00;;;;;;5116132;28;20899;-61
2024/04/03 08:39:39;;;;;;;5.33;2.93;;;10.80;1.00;;;;;;5117005;28;20459;-61
2024/04/03 08:42:09;;;;;;;6.40;3.00;;;10.80;1.00;;;;;;5116619;28;20474;-63
2024/04/03 08:44:35;;;;;;;4.17;2.33;;;10.70;1.00;;;;;;5115736;28;20491;-61
2024/04/03 08:47:03;;;;;;;7.70;3.50;;;10.70;1.00;;;;;;5115912;28;20455;-61
2024/04/03 08:49:32;;;;;;;4.23;2.70;;;10.70;1.00;;;;;;5116515;28;20568;-60
2024/04/03 08:52:02;;;;;;;7.20;2.57;;;10.80;1.00;;;;;;5117196;28;20911;-62
2024/04/03 08:54:28;;;;;;;6.67;3.20;;;10.80;1.00;;;;;;5116891;28;20451;-63
2024/04/03 08:56:56;;;;;;;5.10;3.30;;;10.90;1.00;;;;;;5117556;28;21013;-62
2024/04/03 08:59:22;;;;;;;4.13;2.30;;;11.00;1.00;;;;;;5122075;28;20732;-62
2024/04/03 09:01:50;;;;;;;5.30;2.87;;;11.10;1.00;;;;;;5125016;28;21019;-63
2024/04/03 09:04:17;;;;;;;6.60;2.70;;;11.10;99.90;;;;;;5126473;28;20488;-64
2024/04/03 09:06:47;;;;;;;8.00;2.60;;;11.20;99.90;;;;;;5125979;28;20469;-63
2024/04/03 09:09:17;;;;;;;5.63;2.93;;;11.30;99.90;;;;;;5125446;28;20447;-62
2024/04/03 09:11:47;;;;;;;5.90;3.40;;;11.30;80.90;;;;;;5126441;28;20421;-64
2024/04/03 09:14:19;;;;;;;3.87;2.40;;;11.40;99.90;;;;;;5126926;28;20443;-63
2024/04/03 09:16:47;;;;;;;6.47;2.63;;;11.40;99.90;;;;;;5127365;27;20475;-63
2024/04/03 09:19:14;;;;;;;5.50;2.43;;;11.50;99.90;;;;;;5128326;27;20471;-64
2024/04/03 09:21:41;;;;;;;5.00;2.70;;;11.60;99.90;;;;;;5127119;27;20454;-63
2024/04/03 09:24:09;;;;;;;5.23;3.17;;;11.50;1.00;;;;;;5128599;27;20422;-65
2024/04/03 09:26:45;;;;;;;5.70;2.60;;;11.50;23.30;;;;;;5127794;27;20459;-65
2024/04/03 09:29:15;;;;;;;4.37;2.70;;;11.60;6.40;;;;;;5132085;27;20448;-64
2024/04/03 09:31:43;;;;;;;4.50;2.53;;;11.60;1.00;;;;;;5125786;27;20881;-64
2024/04/03 09:34:10;;;;;;;6.80;2.90;;;11.60;1.00;;;;;;5127652;27;20505;-64
2024/04/03 09:36:38;;;;;;;4.20;2.57;;;11.60;1.00;;;;;;5129557;27;20480;-63
2024/04/03 09:39:04;;;;;;;4.23;2.60;;;11.50;1.00;;;;;;5128367;27;20447;-64
2024/04/03 09:41:33;;;;;;;3.93;2.40;;;11.50;1.00;;;;;;5127826;27;20451;-63
2024/04/03 09:44:02;;;;;;;4.50;2.43;;;11.60;1.00;;;;;;5127061;27;20455;-64
2024/04/03 09:46:40;;;;;;;5.57;3.07;;;11.60;99.90;;;;;;5127471;27;20490;-64
2024/04/03 09:49:09;;;;;;;6.83;3.80;;;11.70;1.00;;;;;;5126537;27;20550;-64
2024/04/03 09:51:37;;;;;;;4.43;3.20;;;11.80;1.00;;;;;;5126051;27;20509;-64
2024/04/03 09:54:04;;;;;;;7.20;3.07;;;11.80;1.00;;;;;;5127391;27;20451;-65
2024/04/03 09:56:33;;;;;;;3.43;2.60;;;11.80;99.90;;;;;;5129206;27;20918;-65
2024/04/03 09:59:01;;;;;;;3.80;2.90;;;11.90;99.90;;;;;;5127993;27;20451;-65
2024/04/03 10:01:30;;;;;;;4.63;3.53;;;11.90;99.90;;;;;;5129035;27;20442;-66
2024/04/03 10:04:03;;;;;;;4.67;3.07;;;11.90;99.90;;;;;;5130843;27;20506;-66
2024/04/03 10:06:36;;;;;;;4.80;2.70;;;11.90;99.90;;;;;;5127569;27;20505;-66
2024/04/03 10:09:16;;;;;;;2.97;1.60;;;11.70;99.90;;;;;;5126797;27;20443;-65
2024/04/03 10:11:49;;;;;;;6.43;2.70;;;11.70;99.90;;;;;;5123248;27;20478;-65
2024/04/03 10:14:19;;;;;;;4.03;2.30;;;11.70;99.90;;;;;;5130375;27;20451;-65
2024/04/03 10:16:46;;;;;;;5.70;2.33;;;11.80;1.00;;;;;;5129099;27;20471;-65
2024/04/03 10:19:19;;;;;;;4.63;2.33;;;12.00;1.00;;;;;;5127541;27;20936;-66
2024/04/03 10:21:46;;;;;;;3.50;2.40;;;12.20;1.00;;;;;;5127965;27;20554;-67
2024/04/03 10:24:13;;;;;;;5.97;2.60;;;12.20;99.90;;;;;;5126868;27;20542;-66
2024/04/03 10:26:41;;;;;;;4.53;2.50;;;12.20;99.90;;;;;;5126483;27;20495;-66
2024/04/03 10:29:08;;;;;;;5.30;2.60;;;12.30;1.00;;;;;;5125130;27;20887;-68
2024/04/03 10:31:36;;;;;;;3.83;2.40;;;12.30;99.90;;;;;;5129102;27;20511;-64
2024/04/03 10:34:02;;;;;;;5.07;2.70;;;12.30;99.90;;;;;;5128053;27;20426;-65
2024/04/03 10:36:30;;;;;;;2.73;2.00;;;12.20;99.90;;;;;;5127475;27;20443;-65
2024/04/03 10:38:59;;;;;;;2.90;2.00;;;12.20;99.90;;;;;;5125476;27;20437;-65
2024/04/03 10:41:26;;;;;;;4.00;2.10;;;12.20;99.90;;;;;;5127011;27;20434;-66
2024/04/03 10:43:53;;;;;;;3.40;2.20;;;12.40;99.90;;;;;;5116464;28;20466;-64
2024/04/03 10:46:26;;;;;;;3.20;2.13;;;12.50;99.90;;;;;;5116701;28;20519;-66
2024/04/03 10:48:53;;;;;;;3.70;2.20;;;12.70;22.10;;;;;;5116683;28;20562;-62
2024/04/03 10:51:22;;;;;;;3.63;1.60;;;12.60;1.00;;;;;;5117439;28;20457;-66
2024/04/03 10:53:49;;;;;;;3.47;2.20;;;12.50;1.00;;;;;;5117951;28;20731;-66
2024/04/03 10:56:18;;;;;;;4.10;2.17;;;12.60;1.00;;;;;;5119079;28;20475;-66
2024/04/03 10:58:44;;;;;;;3.80;1.90;;;12.50;1.00;;;;;;5119261;28;20505;-66
2024/04/03 11:01:12;;;;;;;2.50;1.80;;;12.50;1.00;;;;;;5119164;28;20455;-67
2024/04/03 11:03:41;;;;;;;3.67;2.10;;;12.40;1.00;;;;;;5117903;28;20453;-66
2024/04/03 11:06:09;;;;;;;5.20;2.10;;;12.40;24.30;;;;;;5126575;27;20486;-65
2024/04/03 11:08:35;;;;;;;3.93;2.40;;;12.50;1.00;;;;;;5130451;27;20524;-65
2024/04/03 11:11:07;;;;;;;3.33;2.10;;;12.60;32.30;;;;;;5128841;27;20871;-66
2024/04/03 11:13:36;;;;;;;4.23;1.80;;;12.60;1.00;;;;;;5129752;27;20755;-65
2024/04/03 11:16:10;;;;;;;3.83;2.07;;;12.70;1.00;;;;;;5127015;27;20814;-65
2024/04/03 11:18:36;;;;;;;3.77;1.90;;;12.60;1.00;;;;;;5125138;27;20513;-65
2024/04/03 11:21:07;;;;;;;4.27;2.33;;;12.60;1.00;;;;;;5127047;27;20550;-64
2024/04/03 11:23:37;;;;;;;3.60;2.20;;;12.50;1.00;;;;;;5126270;27;20484;-64
2024/04/03 11:26:05;;;;;;;3.30;2.10;;;12.50;1.00;;;;;;5128228;27;20486;-64
2024/04/03 11:28:32;;;;;;;6.20;2.37;;;12.30;1.00;;;;;;5128586;27;20442;-64
2024/04/03 11:31:00;;;;;;;3.40;1.73;;;12.20;1.00;;;;;;5127471;27;20542;-64
2024/04/03 11:33:27;;;;;;;2.93;2.30;;;12.10;1.00;;;;;;5127494;27;20460;-63
2024/04/03 11:35:55;;;;;;;3.70;2.00;;;11.90;1.00;;;;;;5129186;27;20442;-64
2024/04/03 11:38:23;;;;;;;2.73;1.67;;;11.80;1.00;;;;;;5137462;27;20505;-63
2024/04/03 11:40:50;;;;;;;2.70;1.80;;;11.70;1.00;;;;;;5137946;27;20871;-63
2024/04/03 11:43:17;;;;;;;5.07;1.83;;;11.70;1.00;;;;;;5137956;27;20545;-63
2024/04/03 11:45:44;;;;;;;2.80;1.83;;;11.60;1.00;;;;;;5136942;27;20927;-63
2024/04/03 11:48:10;;;;;;;4.67;2.20;;;11.50;1.00;;;;;;5136430;27;20437;-63
2024/04/03 11:50:38;;;;;;;3.03;1.80;;;11.50;1.00;;;;;;5137417;27;20557;-62
2024/04/03 11:53:06;;;;;;;3.03;1.63;;;11.60;1.00;;;;;;5137834;27;20545;-62
2024/04/03 11:55:35;;;;;;;3.10;1.90;;;11.70;1.00;;;;;;5138346;27;20459;-62
2024/04/03 11:58:01;;;;;;;2.80;1.73;;;11.90;1.00;;;;;;5137735;27;20497;-62
2024/04/03 12:00:30;;;;;;;2.80;1.57;;;12.20;1.00;;;;;;5138195;27;20471;-61
2024/04/03 12:02:56;;;;;;;3.00;2.03;;;12.50;1.00;;;;;;5137684;27;20459;-62
2024/04/03 12:05:24;;;;;;;2.67;1.63;;;12.60;99.90;;;;;;5138642;27;20775;-61
2024/04/03 12:07:50;;;;;;;2.80;1.70;;;12.60;99.90;;;;;;5138176;27;20874;-61
2024/04/03 12:10:21;;;;;;;3.50;1.47;;;12.50;99.90;;;;;;5138807;27;20920;-61
2024/04/03 12:12:50;;;;;;;4.77;3.70;;;12.30;99.90;;;;;;5120600;27;20467;-61
2024/04/03 12:15:17;;;;;;;4.07;2.20;;;12.20;1.00;;;;;;5116355;28;20467;-61
2024/04/03 12:17:45;;;;;;;3.73;2.27;;;12.00;1.00;;;;;;5115560;28;20540;-60
2024/04/03 12:20:13;;;;;;;4.73;2.87;;;11.90;1.00;;;;;;5117838;28;20441;-61
2024/04/03 12:22:39;;;;;;;3.87;2.93;;;11.80;30.00;;;;;;5116520;28;20464;-61
2024/04/03 12:25:07;;;;;;;5.23;3.70;;;11.80;99.90;;;;;;5117803;28;20487;-61
2024/04/03 12:27:34;;;;;;;4.80;2.87;;;11.90;99.90;;;;;;5117782;28;20555;-62
2024/04/03 12:30:03;;;;;;;4.87;2.80;;;12.00;99.90;;;;;;5117570;28;20455;-62
2024/04/03 12:32:29;;;;;;;8.53;6.00;;;12.20;99.90;;;;;;5116606;28;20509;-62
2024/04/03 12:34:57;;;;;;;2.90;1.80;;;12.20;99.90;;;;;;5115608;28;20721;-63
2024/04/03 12:37:27;;;;;;;6.13;4.07;;;12.10;99.90;;;;;;5115841;28;20455;-62
2024/04/03 12:39:54;;;;;;;4.47;3.13;;;12.00;99.90;;;;;;5115724;28;20564;-62
2024/04/03 12:42:21;;;;;;;2.90;2.03;;;12.10;99.90;;;;;;5115686;28;20456;-63
2024/04/03 12:44:48;;;;;;;2.40;1.97;;;12.00;99.90;;;;;;5115976;28;20892;-62
2024/04/03 12:47:16;;;;;;;3.77;2.00;;;11.90;99.90;;;;;;5116746;28;20462;-62
2024/04/03 12:49:44;;;;;;;2.77;2.00;;;11.80;99.90;;;;;;5116815;28;20434;-62
2024/04/03 12:52:10;;;;;;;5.67;5.03;;;11.70;99.90;;;;;;5118289;28;20550;-62
2024/04/03 12:54:38;;;;;;;8.50;5.40;;;11.70;99.90;;;;;;5121585;28;20455;-64
2024/04/03 12:57:04;;;;;;;3.83;2.90;;;11.70;99.90;;;;;;5121184;28;20430;-63
2024/04/03 12:59:32;;;;;;;3.73;2.73;;;11.70;99.90;;;;;;5121391;28;20466;-64
2024/04/03 13:01:59;;;;;;;3.10;2.20;;;11.70;1.00;;;;;;5121068;28;20462;-66